HSKA

Kassala Airport

Kassala, Sudan
TAF HSKA 191700Z 1918/2024 VRB03KT 9999 SCT040 SCT140
Issued Valid From Valid To
Sep-19 @ 17:00 UTC
(6 hours ago)
Sep-19 @ 18:00 UTC
(5 hours ago)
Sep-21 @ 00:00 UTC
(-1 days ago)
Sep-19 @ 18:00 to Sep-21 @ 00:00
TAF HSKA 191700Z 1918/2024 VRB03KT 9999 SCT040 SCT140
Wind Visibility Clouds
Variable at 3 knots 10,000+ meters
  • Scattered at 4,000' AGL
  • Scattered at 14,000' AGL
TAF HSKA 191700Z 1918/2024 VRB03KT 9999 SCT040 SCT140
Issued Sep-19 @ 17:00 UTC
(6 hours ago)
Valid From Sep-19 @ 18:00 UTC
(5 hours ago)
Valid To Sep-21 @ 00:00 UTC
(-1 days ago)
Sep-19 @ 18:00 - Sep-21 @ 00:00
Wind Visibility
Variable at 3 knots 10,000+ meters
Clouds
  • Scattered at 4,000' AGL
  • Scattered at 14,000' AGL